Burchard, Nebraska
Current Conditions -  °F | °C
As of 10:15 PM on Sunday 21 Dec 2014 (Local Time) from KBIE Reporting Station
Haze Haze  
Wind Chill: 36°   Ceiling: 700
Heat Index: 43°   Visibility: 4mi
Dew Point: 42°   Wind: 14mph
Humidity: 96%   Direction: 180°S
Pressure: 29.64"   Gusts: 24mph
Location:  40.15°N, 96.35°W
Report Text: KBIE 220415Z AUTO 18012G21KT 4SM BR OVC007 06/05 A2964 RMK AO2 T00590053
Loading
Personal Weather Stations






























Interactive Weather Map New forecast layout! Learn more

10-Day Weather Forecast

Advertisements
Track Severe Weather on mobile